EVA205 RCTP-VTBS
Flight info
| Callsign | EVA205 |
|---|---|
| Flight time | 3h 13m |
| Altitude | 34000 |
| Route | CHALI1A CHALI T3 MKG A1 KADLO T1 KAPLI DCT MADRU DCT SULUX DCT IGLEG DCT IKELA/K0926F340 A1 PAPRA/N0501F340 A1 UBL Y20 GRASO Y13 RUKSA EASTE1C |
| Aircraft | B77W/H-SDE1E2E3FGHIJ2J3J4J5M1RWXY/LB1D1 |
Departure
| Time | 2026-05-04 07:24 |
|---|---|
| Airport | Taiwan Taoyuan International Airport (RCTP) |
Arrival
| Time | 2026-05-04 10:37 |
|---|---|
| Airport | Suvarnabhumi Airport (VTBS) |
| Time | Latitude | Longitude | Altitude | Speed | Heading |
|---|---|---|---|---|---|
| 2026-05-04 06:48 | 25.07458 | 121.23267 | 121 ft | 0 kts | 321° |
| 2026-05-04 07:12 | 25.07406 | 121.23313 | 121 ft | 2 kts | 320° |
| 2026-05-04 07:12 | 25.07395 | 121.23325 | 121 ft | 2 kts | 298° |
| 2026-05-04 07:12 | 25.07390 | 121.23341 | 121 ft | 2 kts | 278° |
| 2026-05-04 07:12 | 25.07390 | 121.23357 | 121 ft | 2 kts | 260° |
| 2026-05-04 07:13 | 25.07394 | 121.23372 | 121 ft | 2 kts | 242° |
| 2026-05-04 07:13 | 25.07402 | 121.23386 | 121 ft | 2 kts | 226° |
| 2026-05-04 07:13 | 25.07413 | 121.23397 | 121 ft | 2 kts | 226° |
| 2026-05-04 07:14 | 25.07443 | 121.23435 | 121 ft | 0 kts | 229° |
| 2026-05-04 07:17 | 25.07438 | 121.23428 | 121 ft | 2 kts | 229° |
| 2026-05-04 07:17 | 25.07421 | 121.23407 | 121 ft | 4 kts | 229° |
| 2026-05-04 07:17 | 25.07393 | 121.23372 | 121 ft | 7 kts | 229° |
| 2026-05-04 07:18 | 25.07354 | 121.23325 | 121 ft | 9 kts | 229° |
| 2026-05-04 07:18 | 25.07308 | 121.23264 | 121 ft | 11 kts | 229° |
| 2026-05-04 07:18 | 25.07254 | 121.23196 | 121 ft | 12 kts | 228° |
| 2026-05-04 07:18 | 25.07178 | 121.23196 | 121 ft | 12 kts | 139° |
| 2026-05-04 07:19 | 25.07111 | 121.23264 | 121 ft | 12 kts | 145° |
| 2026-05-04 07:19 | 25.07034 | 121.23237 | 121 ft | 13 kts | 225° |
| 2026-05-04 07:19 | 25.06966 | 121.23154 | 121 ft | 15 kts | 229° |
| 2026-05-04 07:19 | 25.06895 | 121.23063 | 121 ft | 16 kts | 229° |
| 2026-05-04 07:20 | 25.06818 | 121.22967 | 121 ft | 17 kts | 229° |
| 2026-05-04 07:20 | 25.06738 | 121.22865 | 121 ft | 17 kts | 229° |
| 2026-05-04 07:20 | 25.06654 | 121.22759 | 121 ft | 18 kts | 229° |
| 2026-05-04 07:20 | 25.06567 | 121.22649 | 121 ft | 19 kts | 229° |
| 2026-05-04 07:22 | 25.06121 | 121.22398 | 121 ft | 0 kts | 47° |
| 2026-05-04 07:23 | 25.06124 | 121.22402 | 121 ft | 3 kts | 48° |
| 2026-05-04 07:23 | 25.06179 | 121.22470 | 121 ft | 26 kts | 48° |
| 2026-05-04 07:23 | 25.06444 | 121.22808 | 121 ft | 90 kts | 49° |
| 2026-05-04 07:23 | 25.06990 | 121.23502 | 122 ft | 147 kts | 49° |
| 2026-05-04 07:24 | 25.07771 | 121.24489 | 267 ft | 182 kts | 51° |
| 2026-05-04 07:24 | 25.08604 | 121.25555 | 903 ft | 187 kts | 51° |
| 2026-05-04 07:24 | 25.09406 | 121.26599 | 1771 ft | 180 kts | 50° |
| 2026-05-04 07:24 | 25.10261 | 121.27717 | 2076 ft | 198 kts | 51° |
| 2026-05-04 07:25 | 25.11210 | 121.28956 | 2250 ft | 224 kts | 51° |
| 2026-05-04 07:26 | 25.20916 | 121.24674 | 6683 ft | 285 kts | 304° |
| 2026-05-04 07:27 | 25.22095 | 121.22987 | 7544 ft | 279 kts | 303° |
| 2026-05-04 07:27 | 25.23275 | 121.21295 | 8343 ft | 276 kts | 303° |
| 2026-05-04 07:27 | 25.24443 | 121.19620 | 9089 ft | 275 kts | 302° |
| 2026-05-04 07:27 | 25.25605 | 121.17953 | 9865 ft | 273 kts | 302° |
| 2026-05-04 07:28 | 25.26704 | 121.16256 | 10411 ft | 277 kts | 295° |
| 2026-05-04 07:28 | 25.27526 | 121.14277 | 10643 ft | 291 kts | 283° |
| 2026-05-04 07:28 | 25.27941 | 121.12038 | 10891 ft | 306 kts | 272° |
| 2026-05-04 07:28 | 25.27859 | 121.09659 | 11180 ft | 321 kts | 259° |
| 2026-05-04 07:29 | 25.27195 | 121.07211 | 11516 ft | 336 kts | 246° |
| 2026-05-04 07:29 | 25.25948 | 121.04993 | 11909 ft | 351 kts | 231° |
| 2026-05-04 07:29 | 25.24060 | 121.03184 | 12509 ft | 362 kts | 216° |
| 2026-05-04 07:29 | 25.21909 | 121.01706 | 13249 ft | 363 kts | 218° |
| 2026-05-04 07:30 | 25.19843 | 121.00026 | 14020 ft | 365 kts | 220° |
| 2026-05-04 07:30 | 25.17850 | 120.98334 | 14768 ft | 367 kts | 223° |
| 2026-05-04 07:30 | 25.15900 | 120.96503 | 15484 ft | 370 kts | 224° |
| 2026-05-04 07:30 | 25.13974 | 120.94601 | 16182 ft | 374 kts | 225° |
| 2026-05-04 07:31 | 25.12083 | 120.92670 | 16935 ft | 375 kts | 226° |
| 2026-05-04 07:31 | 25.10194 | 120.90688 | 17617 ft | 378 kts | 227° |
| 2026-05-04 07:33 | 24.96669 | 120.76118 | 21901 ft | 399 kts | 229° |
| 2026-05-04 07:33 | 24.94720 | 120.73916 | 22426 ft | 402 kts | 229° |
| 2026-05-04 07:33 | 24.92760 | 120.71703 | 22988 ft | 405 kts | 229° |
| 2026-05-04 07:33 | 24.90785 | 120.69473 | 23574 ft | 406 kts | 229° |
| 2026-05-04 07:34 | 24.88817 | 120.67253 | 24154 ft | 408 kts | 229° |
| 2026-05-04 07:34 | 24.86830 | 120.65012 | 24700 ft | 411 kts | 229° |
| 2026-05-04 07:34 | 24.84816 | 120.62741 | 25218 ft | 414 kts | 229° |
| 2026-05-04 07:34 | 24.82805 | 120.60475 | 25709 ft | 418 kts | 229° |
| 2026-05-04 07:35 | 24.80751 | 120.58162 | 26195 ft | 422 kts | 229° |
| 2026-05-04 07:35 | 24.78700 | 120.55853 | 26722 ft | 424 kts | 230° |
| 2026-05-04 07:35 | 24.76645 | 120.53542 | 27206 ft | 427 kts | 229° |
| 2026-05-04 07:35 | 24.74557 | 120.51193 | 27694 ft | 429 kts | 229° |
| 2026-05-04 07:36 | 24.72461 | 120.48838 | 28104 ft | 434 kts | 230° |
| 2026-05-04 07:36 | 24.70340 | 120.46454 | 28357 ft | 441 kts | 230° |
| 2026-05-04 07:38 | 24.55213 | 120.29507 | 32655 ft | 431 kts | 230° |
| 2026-05-04 07:38 | 24.53113 | 120.27160 | 33348 ft | 427 kts | 230° |
| 2026-05-04 07:38 | 24.51030 | 120.24832 | 33888 ft | 426 kts | 230° |
| 2026-05-04 07:38 | 24.48953 | 120.22510 | 34031 ft | 430 kts | 230° |
| 2026-05-04 07:39 | 24.44758 | 120.17828 | 34037 ft | 428 kts | 230° |
| 2026-05-04 07:39 | 24.40519 | 120.13097 | 34037 ft | 441 kts | 230° |
| 2026-05-04 07:40 | 24.36142 | 120.08216 | 34034 ft | 454 kts | 230° |
| 2026-05-04 07:40 | 24.31687 | 120.03256 | 34029 ft | 457 kts | 230° |
| 2026-05-04 07:41 | 24.27236 | 119.98309 | 34023 ft | 458 kts | 230° |
| 2026-05-04 07:41 | 24.22758 | 119.93336 | 34022 ft | 458 kts | 230° |
| 2026-05-04 07:42 | 24.18298 | 119.88390 | 34010 ft | 459 kts | 230° |
| 2026-05-04 07:42 | 24.13775 | 119.83378 | 34013 ft | 459 kts | 230° |
| 2026-05-04 07:43 | 24.09298 | 119.78422 | 34017 ft | 460 kts | 230° |
| 2026-05-04 07:43 | 24.04801 | 119.73449 | 34005 ft | 460 kts | 230° |
| 2026-05-04 07:44 | 24.00274 | 119.68449 | 34019 ft | 461 kts | 230° |
| 2026-05-04 07:44 | 23.95750 | 119.63457 | 34011 ft | 462 kts | 229° |
| 2026-05-04 07:45 | 23.91236 | 119.58482 | 34015 ft | 461 kts | 230° |
| 2026-05-04 07:45 | 23.86669 | 119.53453 | 34018 ft | 463 kts | 230° |
| 2026-05-04 07:46 | 23.82128 | 119.48459 | 34011 ft | 463 kts | 230° |
| 2026-05-04 07:46 | 23.77548 | 119.43426 | 34013 ft | 464 kts | 230° |
| 2026-05-04 07:47 | 23.72979 | 119.38412 | 34013 ft | 465 kts | 230° |
| 2026-05-04 07:49 | 23.54623 | 119.18316 | 34024 ft | 467 kts | 229° |
| 2026-05-04 07:49 | 23.50027 | 119.13300 | 34026 ft | 465 kts | 229° |
| 2026-05-04 07:50 | 23.45454 | 119.08312 | 34026 ft | 467 kts | 229° |
| 2026-05-04 07:50 | 23.40878 | 119.03326 | 34028 ft | 467 kts | 229° |
| 2026-05-04 07:51 | 23.36272 | 118.98315 | 34028 ft | 467 kts | 229° |
| 2026-05-04 07:51 | 23.31700 | 118.93344 | 34017 ft | 467 kts | 229° |
| 2026-05-04 07:52 | 23.27076 | 118.88321 | 34017 ft | 468 kts | 229° |
| 2026-05-04 07:52 | 23.22477 | 118.83332 | 34020 ft | 468 kts | 229° |
| 2026-05-04 07:54 | 23.03879 | 118.63207 | 34007 ft | 469 kts | 229° |
| 2026-05-04 07:55 | 22.99224 | 118.58182 | 34006 ft | 471 kts | 229° |
| 2026-05-04 07:55 | 22.94229 | 118.53564 | 34003 ft | 478 kts | 218° |
| 2026-05-04 07:56 | 22.88402 | 118.49993 | 34010 ft | 482 kts | 214° |
| 2026-05-04 07:56 | 22.82509 | 118.46502 | 34006 ft | 483 kts | 214° |
| 2026-05-04 07:57 | 22.76562 | 118.42987 | 34002 ft | 483 kts | 214° |
| 2026-05-04 07:57 | 22.70646 | 118.39497 | 34001 ft | 483 kts | 214° |
| 2026-05-04 07:58 | 22.64748 | 118.36025 | 33991 ft | 483 kts | 214° |
| 2026-05-04 07:58 | 22.58815 | 118.32541 | 34010 ft | 482 kts | 213° |
| 2026-05-04 07:59 | 22.52881 | 118.29058 | 34006 ft | 485 kts | 213° |
| 2026-05-04 07:59 | 22.46939 | 118.25576 | 34003 ft | 484 kts | 213° |
| 2026-05-04 08:00 | 22.40991 | 118.22092 | 34004 ft | 484 kts | 213° |
| 2026-05-04 08:02 | 22.17148 | 118.08135 | 33994 ft | 488 kts | 213° |
| 2026-05-04 08:02 | 22.11173 | 118.04653 | 33989 ft | 485 kts | 213° |
| 2026-05-04 08:03 | 22.05211 | 118.01180 | 33988 ft | 488 kts | 213° |
| 2026-05-04 08:03 | 21.99235 | 117.97704 | 33996 ft | 487 kts | 213° |
| 2026-05-04 08:04 | 21.93245 | 117.94222 | 34005 ft | 488 kts | 213° |
| 2026-05-04 08:04 | 21.87227 | 117.90727 | 34004 ft | 489 kts | 213° |
| 2026-05-04 08:05 | 21.81407 | 117.86999 | 34004 ft | 484 kts | 221° |
| 2026-05-04 08:05 | 21.76517 | 117.82094 | 34000 ft | 477 kts | 229° |
| 2026-05-04 08:06 | 21.71888 | 117.77014 | 33994 ft | 478 kts | 229° |
| 2026-05-04 08:06 | 21.67198 | 117.71871 | 33995 ft | 479 kts | 229° |
| 2026-05-04 08:08 | 21.48494 | 117.51411 | 33979 ft | 481 kts | 229° |
| 2026-05-04 08:11 | 21.27337 | 117.28362 | 33982 ft | 482 kts | 228° |
| 2026-05-04 08:11 | 21.20256 | 117.20672 | 33977 ft | 481 kts | 228° |
| 2026-05-04 08:12 | 21.15938 | 117.15246 | 33971 ft | 477 kts | 239° |
| 2026-05-04 08:12 | 21.12866 | 117.08950 | 33970 ft | 477 kts | 245° |
| 2026-05-04 08:13 | 21.09968 | 117.02597 | 33968 ft | 477 kts | 245° |
| 2026-05-04 08:13 | 21.07043 | 116.96201 | 33969 ft | 477 kts | 245° |
| 2026-05-04 08:14 | 21.04099 | 116.89775 | 33968 ft | 477 kts | 245° |
| 2026-05-04 08:16 | 20.92303 | 116.64123 | 33962 ft | 478 kts | 245° |
| 2026-05-04 08:16 | 20.89354 | 116.57731 | 33966 ft | 478 kts | 245° |
| 2026-05-04 08:17 | 20.86415 | 116.51369 | 33968 ft | 478 kts | 245° |
| 2026-05-04 08:17 | 20.83463 | 116.44986 | 33961 ft | 478 kts | 245° |
| 2026-05-04 08:19 | 20.71635 | 116.19485 | 33966 ft | 479 kts | 245° |
| 2026-05-04 08:20 | 20.68655 | 116.13080 | 33965 ft | 479 kts | 245° |
| 2026-05-04 08:20 | 20.65682 | 116.06696 | 33963 ft | 479 kts | 245° |
| 2026-05-04 08:21 | 20.62713 | 116.00330 | 33960 ft | 479 kts | 245° |
| 2026-05-04 08:21 | 20.59735 | 115.93951 | 33958 ft | 480 kts | 245° |
| 2026-05-04 08:22 | 20.56748 | 115.87560 | 33956 ft | 480 kts | 245° |
| 2026-05-04 08:24 | 20.44794 | 115.62060 | 33954 ft | 480 kts | 245° |
| 2026-05-04 08:24 | 20.41784 | 115.55658 | 33954 ft | 481 kts | 245° |
| 2026-05-04 08:25 | 20.38790 | 115.49300 | 33955 ft | 481 kts | 245° |
| 2026-05-04 08:25 | 20.35767 | 115.42883 | 33955 ft | 481 kts | 245° |
| 2026-05-04 08:27 | 20.23701 | 115.17355 | 33964 ft | 482 kts | 245° |
| 2026-05-04 08:28 | 20.20663 | 115.10945 | 33964 ft | 482 kts | 245° |
| 2026-05-04 08:28 | 20.17624 | 115.04540 | 33966 ft | 482 kts | 245° |
| 2026-05-04 08:29 | 20.14586 | 114.98146 | 33965 ft | 482 kts | 245° |
| 2026-05-04 08:31 | 20.02501 | 114.72781 | 33944 ft | 482 kts | 245° |
| 2026-05-04 08:33 | 19.90300 | 114.47289 | 33939 ft | 481 kts | 245° |
| 2026-05-04 08:35 | 19.78083 | 114.21877 | 33949 ft | 481 kts | 244° |
| 2026-05-04 08:35 | 19.75039 | 114.15564 | 33947 ft | 480 kts | 244° |
| 2026-05-04 08:37 | 19.64354 | 113.93456 | 33945 ft | 480 kts | 244° |
| 2026-05-04 08:38 | 19.61296 | 113.87144 | 33943 ft | 482 kts | 244° |
| 2026-05-04 08:38 | 19.58236 | 113.80835 | 33939 ft | 482 kts | 244° |
| 2026-05-04 08:40 | 19.45885 | 113.55441 | 33930 ft | 485 kts | 244° |
| 2026-05-04 08:41 | 19.42780 | 113.49075 | 33929 ft | 484 kts | 244° |
| 2026-05-04 08:41 | 19.39692 | 113.42751 | 33929 ft | 486 kts | 244° |
| 2026-05-04 08:42 | 19.36592 | 113.36409 | 33924 ft | 484 kts | 244° |
| 2026-05-04 08:42 | 19.33467 | 113.30023 | 33937 ft | 486 kts | 244° |
| 2026-05-04 08:43 | 19.30364 | 113.23688 | 33935 ft | 487 kts | 244° |
| 2026-05-04 08:43 | 19.27237 | 113.17312 | 33930 ft | 487 kts | 244° |
| 2026-05-04 08:44 | 19.24100 | 113.10922 | 33929 ft | 487 kts | 244° |
| 2026-05-04 08:46 | 19.11583 | 112.85493 | 33928 ft | 487 kts | 244° |
| 2026-05-04 08:46 | 19.08433 | 112.79114 | 33922 ft | 488 kts | 244° |
| 2026-05-04 08:47 | 19.05291 | 112.72754 | 33921 ft | 487 kts | 244° |
| 2026-05-04 08:47 | 19.02129 | 112.66361 | 33923 ft | 489 kts | 244° |
| 2026-05-04 08:48 | 18.98958 | 112.59957 | 33922 ft | 489 kts | 244° |
| 2026-05-04 08:48 | 18.95790 | 112.53567 | 33922 ft | 489 kts | 244° |
| 2026-05-04 08:49 | 18.92609 | 112.47203 | 33907 ft | 490 kts | 241° |
| 2026-05-04 08:50 | 18.77174 | 112.32820 | 33936 ft | 499 kts | 218° |
| 2026-05-04 08:50 | 18.74352 | 112.30685 | 33938 ft | 498 kts | 218° |
| 2026-05-04 08:51 | 18.68727 | 112.26401 | 33935 ft | 497 kts | 221° |
| 2026-05-04 08:51 | 18.64064 | 112.21125 | 33936 ft | 491 kts | 237° |
| 2026-05-04 08:52 | 18.60227 | 112.15102 | 33938 ft | 491 kts | 238° |
| 2026-05-04 08:52 | 18.56437 | 112.09103 | 33935 ft | 491 kts | 238° |
| 2026-05-04 08:54 | 18.41230 | 111.85101 | 33930 ft | 492 kts | 238° |
| 2026-05-04 08:55 | 18.37433 | 111.79122 | 33928 ft | 492 kts | 238° |
| 2026-05-04 08:55 | 18.33618 | 111.73121 | 33930 ft | 491 kts | 238° |
| 2026-05-04 09:01 | 17.93405 | 111.10204 | 33907 ft | 492 kts | 237° |
| 2026-05-04 09:01 | 17.89532 | 111.04175 | 33904 ft | 492 kts | 238° |
| 2026-05-04 09:02 | 17.85683 | 110.98191 | 33902 ft | 493 kts | 238° |
| 2026-05-04 09:02 | 17.81832 | 110.92208 | 33910 ft | 492 kts | 238° |
| 2026-05-04 09:03 | 17.77986 | 110.86238 | 33916 ft | 492 kts | 238° |
| 2026-05-04 09:03 | 17.74141 | 110.80276 | 33913 ft | 493 kts | 238° |
| 2026-05-04 09:04 | 17.70275 | 110.74286 | 33913 ft | 494 kts | 238° |
| 2026-05-04 09:04 | 17.66437 | 110.68345 | 33911 ft | 494 kts | 238° |
| 2026-05-04 09:05 | 17.62549 | 110.62333 | 33909 ft | 494 kts | 238° |
| 2026-05-04 09:05 | 17.58666 | 110.56333 | 33906 ft | 495 kts | 238° |
| 2026-05-04 09:06 | 17.54759 | 110.50301 | 33908 ft | 496 kts | 238° |
| 2026-05-04 09:08 | 17.39169 | 110.26244 | 33907 ft | 498 kts | 238° |
| 2026-05-04 09:08 | 17.35318 | 110.20220 | 33907 ft | 498 kts | 238° |
| 2026-05-04 09:09 | 17.31406 | 110.14107 | 33906 ft | 498 kts | 238° |
| 2026-05-04 09:09 | 17.27519 | 110.08043 | 33906 ft | 499 kts | 238° |
| 2026-05-04 09:10 | 17.23626 | 110.01975 | 33904 ft | 498 kts | 238° |
| 2026-05-04 09:10 | 17.19740 | 109.95924 | 33905 ft | 499 kts | 238° |
| 2026-05-04 09:11 | 17.15824 | 109.89832 | 33904 ft | 499 kts | 238° |
| 2026-05-04 09:11 | 17.11926 | 109.83775 | 33903 ft | 498 kts | 238° |
| 2026-05-04 09:12 | 17.08058 | 109.77768 | 33902 ft | 498 kts | 238° |
| 2026-05-04 09:14 | 16.92521 | 109.53696 | 33880 ft | 497 kts | 238° |
| 2026-05-04 09:14 | 16.88625 | 109.47674 | 33880 ft | 498 kts | 238° |
| 2026-05-04 09:15 | 16.84730 | 109.41657 | 33879 ft | 499 kts | 238° |
| 2026-05-04 09:15 | 16.80830 | 109.35632 | 33878 ft | 498 kts | 238° |
| 2026-05-04 09:17 | 16.63327 | 109.08623 | 33895 ft | 498 kts | 237° |
| 2026-05-04 09:18 | 16.59436 | 109.02634 | 33896 ft | 498 kts | 237° |
| 2026-05-04 09:18 | 16.55509 | 108.96596 | 33897 ft | 498 kts | 237° |
| 2026-05-04 09:19 | 16.51537 | 108.90621 | 33897 ft | 498 kts | 237° |
| 2026-05-04 09:19 | 16.47571 | 108.84676 | 33895 ft | 497 kts | 237° |
| 2026-05-04 09:20 | 16.43594 | 108.78716 | 33894 ft | 497 kts | 237° |
| 2026-05-04 09:20 | 16.39635 | 108.72786 | 33892 ft | 498 kts | 237° |
| 2026-05-04 09:21 | 16.35655 | 108.66827 | 33892 ft | 497 kts | 237° |
| 2026-05-04 09:21 | 16.31768 | 108.60845 | 33892 ft | 497 kts | 238° |
| 2026-05-04 09:22 | 16.27915 | 108.54852 | 33892 ft | 496 kts | 238° |
| 2026-05-04 09:22 | 16.24056 | 108.48863 | 33893 ft | 497 kts | 238° |
| 2026-05-04 09:23 | 16.20207 | 108.42898 | 33896 ft | 496 kts | 238° |
| 2026-05-04 09:23 | 16.16336 | 108.36905 | 33899 ft | 497 kts | 238° |
| 2026-05-04 09:25 | 16.04061 | 108.15466 | 33960 ft | 493 kts | 253° |
| 2026-05-04 09:25 | 16.03093 | 108.12044 | 33972 ft | 493 kts | 254° |
| 2026-05-04 09:26 | 16.01195 | 108.05251 | 34007 ft | 491 kts | 254° |
| 2026-05-04 09:26 | 15.99274 | 107.98389 | 34040 ft | 492 kts | 254° |
| 2026-05-04 09:27 | 15.97335 | 107.91479 | 34030 ft | 493 kts | 254° |
| 2026-05-04 09:27 | 15.95416 | 107.84566 | 34017 ft | 493 kts | 255° |
| 2026-05-04 09:28 | 15.93529 | 107.77619 | 33999 ft | 494 kts | 255° |
| 2026-05-04 09:28 | 15.91643 | 107.70699 | 33993 ft | 494 kts | 255° |
| 2026-05-04 09:29 | 15.89730 | 107.63733 | 34001 ft | 494 kts | 254° |
| 2026-05-04 09:29 | 15.87764 | 107.56878 | 34004 ft | 495 kts | 254° |
| 2026-05-04 09:30 | 15.85794 | 107.50025 | 34007 ft | 494 kts | 254° |
| 2026-05-04 09:30 | 15.83795 | 107.43076 | 34016 ft | 494 kts | 254° |
| 2026-05-04 09:31 | 15.81817 | 107.36201 | 34038 ft | 494 kts | 254° |
| 2026-05-04 09:31 | 15.79824 | 107.29279 | 34064 ft | 496 kts | 253° |
| 2026-05-04 09:32 | 15.77831 | 107.22366 | 34071 ft | 495 kts | 254° |
| 2026-05-04 09:34 | 15.71454 | 106.94320 | 34054 ft | 494 kts | 258° |
| 2026-05-04 09:34 | 15.69942 | 106.87301 | 34010 ft | 495 kts | 258° |
| 2026-05-04 09:35 | 15.68412 | 106.80231 | 33960 ft | 495 kts | 258° |
| 2026-05-04 09:35 | 15.66890 | 106.73225 | 33909 ft | 495 kts | 258° |
| 2026-05-04 09:37 | 15.60739 | 106.45058 | 33943 ft | 496 kts | 258° |
| 2026-05-04 09:38 | 15.59201 | 106.38046 | 33929 ft | 497 kts | 258° |
| 2026-05-04 09:38 | 15.57649 | 106.30981 | 33926 ft | 496 kts | 258° |
| 2026-05-04 09:39 | 15.56098 | 106.23936 | 33920 ft | 496 kts | 257° |
| 2026-05-04 09:39 | 15.54549 | 106.16905 | 33904 ft | 497 kts | 258° |
| 2026-05-04 09:40 | 15.53005 | 106.09914 | 33897 ft | 496 kts | 258° |
| 2026-05-04 09:40 | 15.51444 | 106.02854 | 33875 ft | 496 kts | 258° |
| 2026-05-04 09:42 | 15.45226 | 105.74842 | 33844 ft | 497 kts | 258° |
| 2026-05-04 09:43 | 15.43664 | 105.67834 | 33838 ft | 496 kts | 258° |
| 2026-05-04 09:43 | 15.42109 | 105.60867 | 33835 ft | 496 kts | 258° |
| 2026-05-04 09:44 | 15.40495 | 105.53886 | 33838 ft | 495 kts | 257° |
| 2026-05-04 09:46 | 15.33884 | 105.25954 | 33812 ft | 496 kts | 257° |
| 2026-05-04 09:46 | 15.32230 | 105.18979 | 33817 ft | 495 kts | 257° |
| 2026-05-04 09:47 | 15.30589 | 105.12068 | 33823 ft | 495 kts | 257° |
| 2026-05-04 09:49 | 15.24314 | 104.84131 | 33826 ft | 493 kts | 265° |
| 2026-05-04 09:51 | 15.22271 | 104.59231 | 33803 ft | 492 kts | 265° |
| 2026-05-04 09:51 | 15.21679 | 104.52071 | 33797 ft | 492 kts | 266° |
| 2026-05-04 09:52 | 15.21092 | 104.45010 | 33792 ft | 492 kts | 266° |
| 2026-05-04 09:52 | 15.20504 | 104.37962 | 33793 ft | 493 kts | 266° |
| 2026-05-04 09:53 | 15.19910 | 104.30867 | 33800 ft | 492 kts | 265° |
| 2026-05-04 09:53 | 15.19318 | 104.23839 | 33796 ft | 492 kts | 265° |
| 2026-05-04 09:54 | 15.18722 | 104.16778 | 33801 ft | 492 kts | 265° |
| 2026-05-04 09:54 | 15.18121 | 104.09690 | 33805 ft | 491 kts | 265° |
| 2026-05-04 09:55 | 15.17522 | 104.02645 | 33808 ft | 491 kts | 265° |
| 2026-05-04 09:55 | 15.16920 | 103.95598 | 33808 ft | 491 kts | 265° |
| 2026-05-04 09:56 | 15.16316 | 103.88555 | 33806 ft | 492 kts | 265° |
| 2026-05-04 09:56 | 15.15707 | 103.81493 | 33808 ft | 491 kts | 265° |
| 2026-05-04 09:57 | 15.14142 | 103.74615 | 33812 ft | 493 kts | 253° |
| 2026-05-04 09:57 | 15.13117 | 103.71420 | 33805 ft | 495 kts | 253° |
| 2026-05-04 09:58 | 15.10927 | 103.64645 | 33803 ft | 494 kts | 253° |
| 2026-05-04 09:58 | 15.08725 | 103.57839 | 33794 ft | 494 kts | 253° |
| 2026-05-04 10:00 | 15.00005 | 103.30956 | 33816 ft | 492 kts | 252° |
| 2026-05-04 10:04 | 14.84672 | 102.83605 | 33807 ft | 493 kts | 254° |
| 2026-05-04 10:04 | 14.82611 | 102.76846 | 33809 ft | 493 kts | 254° |
| 2026-05-04 10:05 | 14.80533 | 102.70055 | 33807 ft | 493 kts | 253° |
| 2026-05-04 10:05 | 14.78470 | 102.63331 | 33808 ft | 494 kts | 253° |
| 2026-05-04 10:06 | 14.76374 | 102.56511 | 33811 ft | 494 kts | 253° |
| 2026-05-04 10:06 | 14.74290 | 102.49741 | 33811 ft | 494 kts | 253° |
| 2026-05-04 10:08 | 14.68206 | 102.30026 | 33833 ft | 496 kts | 253° |
| 2026-05-04 10:08 | 14.66112 | 102.23255 | 33822 ft | 495 kts | 253° |
| 2026-05-04 10:09 | 14.64014 | 102.16480 | 33490 ft | 483 kts | 253° |
| 2026-05-04 10:09 | 14.62994 | 102.13191 | 32402 ft | 488 kts | 253° |
| 2026-05-04 10:09 | 14.61958 | 102.09847 | 31493 ft | 490 kts | 253° |
| 2026-05-04 10:10 | 14.60902 | 102.06445 | 30699 ft | 489 kts | 253° |
| 2026-05-04 10:10 | 14.59868 | 102.03114 | 30149 ft | 483 kts | 253° |
| 2026-05-04 10:10 | 14.58848 | 101.99833 | 29713 ft | 476 kts | 253° |
| 2026-05-04 10:10 | 14.57845 | 101.96606 | 29222 ft | 470 kts | 253° |
| 2026-05-04 10:11 | 14.56852 | 101.93412 | 28698 ft | 465 kts | 253° |
| 2026-05-04 10:11 | 14.55844 | 101.90273 | 28184 ft | 460 kts | 250° |
| 2026-05-04 10:11 | 14.54627 | 101.87221 | 27681 ft | 456 kts | 248° |
| 2026-05-04 10:11 | 14.53394 | 101.84219 | 27161 ft | 452 kts | 248° |
| 2026-05-04 10:12 | 14.52173 | 101.81235 | 26638 ft | 448 kts | 248° |
| 2026-05-04 10:12 | 14.50989 | 101.78323 | 26119 ft | 445 kts | 248° |
| 2026-05-04 10:12 | 14.49790 | 101.75367 | 25595 ft | 441 kts | 248° |
| 2026-05-04 10:12 | 14.48609 | 101.72443 | 25071 ft | 438 kts | 248° |
| 2026-05-04 10:13 | 14.47450 | 101.69569 | 24556 ft | 435 kts | 248° |
| 2026-05-04 10:13 | 14.46290 | 101.66690 | 24040 ft | 432 kts | 248° |
| 2026-05-04 10:13 | 14.45139 | 101.63829 | 23516 ft | 429 kts | 248° |
| 2026-05-04 10:13 | 14.44477 | 101.62186 | 23218 ft | 427 kts | 248° |
| 2026-05-04 10:14 | 14.43345 | 101.59370 | 22709 ft | 424 kts | 248° |
| 2026-05-04 10:14 | 14.42231 | 101.56600 | 22195 ft | 422 kts | 248° |
| 2026-05-04 10:16 | 14.34496 | 101.37381 | 18545 ft | 408 kts | 248° |
| 2026-05-04 10:16 | 14.33420 | 101.34710 | 18139 ft | 402 kts | 248° |
| 2026-05-04 10:16 | 14.32356 | 101.32078 | 18026 ft | 389 kts | 247° |
| 2026-05-04 10:16 | 14.31072 | 101.29662 | 17896 ft | 377 kts | 236° |
| 2026-05-04 10:17 | 14.29401 | 101.27618 | 17700 ft | 370 kts | 225° |
| 2026-05-04 10:17 | 14.27467 | 101.25846 | 17374 ft | 373 kts | 221° |
| 2026-05-04 10:19 | 14.13670 | 101.14068 | 15205 ft | 360 kts | 220° |
| 2026-05-04 10:19 | 14.11725 | 101.12430 | 14900 ft | 358 kts | 220° |
| 2026-05-04 10:19 | 14.09777 | 101.10791 | 14620 ft | 355 kts | 219° |
| 2026-05-04 10:19 | 14.07894 | 101.09208 | 14337 ft | 349 kts | 219° |
| 2026-05-04 10:20 | 14.06033 | 101.07645 | 14049 ft | 343 kts | 219° |
| 2026-05-04 10:20 | 14.04176 | 101.06084 | 13777 ft | 337 kts | 219° |
| 2026-05-04 10:20 | 14.02365 | 101.04563 | 13496 ft | 331 kts | 219° |
| 2026-05-04 10:20 | 14.00599 | 101.03080 | 13223 ft | 325 kts | 219° |
| 2026-05-04 10:21 | 13.98856 | 101.01617 | 12971 ft | 319 kts | 219° |
| 2026-05-04 10:21 | 13.97147 | 101.00183 | 12711 ft | 314 kts | 219° |
| 2026-05-04 10:21 | 13.95460 | 100.98767 | 12537 ft | 305 kts | 219° |
| 2026-05-04 10:21 | 13.93838 | 100.97405 | 12369 ft | 297 kts | 218° |
| 2026-05-04 10:22 | 13.90634 | 100.94719 | 11634 ft | 297 kts | 218° |
| 2026-05-04 10:22 | 13.89031 | 100.93375 | 11226 ft | 299 kts | 218° |
| 2026-05-04 10:22 | 13.87425 | 100.92028 | 10960 ft | 300 kts | 218° |
| 2026-05-04 10:23 | 13.85761 | 100.90635 | 10930 ft | 307 kts | 218° |
| 2026-05-04 10:23 | 13.84104 | 100.89274 | 10920 ft | 306 kts | 212° |
| 2026-05-04 10:25 | 13.70044 | 100.84993 | 9500 ft | 298 kts | 193° |
| 2026-05-04 10:25 | 13.68702 | 100.84625 | 9349 ft | 297 kts | 193° |
| 2026-05-04 10:25 | 13.66678 | 100.84071 | 9109 ft | 296 kts | 193° |
| 2026-05-04 10:25 | 13.64696 | 100.83530 | 8874 ft | 295 kts | 193° |
| 2026-05-04 10:26 | 13.62712 | 100.82986 | 8596 ft | 294 kts | 193° |
| 2026-05-04 10:26 | 13.60709 | 100.82438 | 8283 ft | 292 kts | 193° |
| 2026-05-04 10:26 | 13.58765 | 100.81906 | 7980 ft | 290 kts | 193° |
| 2026-05-04 10:26 | 13.56796 | 100.81368 | 7677 ft | 288 kts | 193° |
| 2026-05-04 10:27 | 13.54875 | 100.80843 | 7364 ft | 286 kts | 193° |
| 2026-05-04 10:27 | 13.52953 | 100.80317 | 7044 ft | 284 kts | 193° |
| 2026-05-04 10:27 | 13.51050 | 100.79797 | 6729 ft | 280 kts | 193° |
| 2026-05-04 10:27 | 13.49166 | 100.79282 | 6417 ft | 277 kts | 193° |
| 2026-05-04 10:28 | 13.47299 | 100.78771 | 6110 ft | 273 kts | 193° |
| 2026-05-04 10:28 | 13.45425 | 100.78258 | 5799 ft | 270 kts | 193° |
| 2026-05-04 10:28 | 13.43628 | 100.77766 | 5494 ft | 267 kts | 193° |
| 2026-05-04 10:28 | 13.41821 | 100.77270 | 5182 ft | 264 kts | 193° |
| 2026-05-04 10:29 | 13.40043 | 100.76783 | 4875 ft | 262 kts | 194° |
| 2026-05-04 10:29 | 13.38276 | 100.76299 | 4565 ft | 260 kts | 193° |
| 2026-05-04 10:29 | 13.36532 | 100.75838 | 4256 ft | 257 kts | 193° |
| 2026-05-04 10:29 | 13.34793 | 100.75383 | 3946 ft | 255 kts | 194° |
| 2026-05-04 10:30 | 13.33219 | 100.74548 | 3676 ft | 254 kts | 223° |
| 2026-05-04 10:30 | 13.32277 | 100.73047 | 3498 ft | 247 kts | 254° |
| 2026-05-04 10:30 | 13.32211 | 100.71326 | 3327 ft | 240 kts | 285° |
| 2026-05-04 10:30 | 13.33006 | 100.69867 | 3162 ft | 233 kts | 319° |
| 2026-05-04 10:31 | 13.34406 | 100.69080 | 3005 ft | 231 kts | 351° |
| 2026-05-04 10:31 | 13.36016 | 100.68865 | 2934 ft | 229 kts | 352° |
| 2026-05-04 10:32 | 13.44721 | 100.69730 | 2933 ft | 226 kts | 15° |
| 2026-05-04 10:33 | 13.46272 | 100.70122 | 2937 ft | 227 kts | 16° |
| 2026-05-04 10:33 | 13.47838 | 100.70529 | 2936 ft | 226 kts | 16° |
| 2026-05-04 10:33 | 13.49381 | 100.70933 | 2940 ft | 226 kts | 16° |
| 2026-05-04 10:33 | 13.50919 | 100.71338 | 2835 ft | 231 kts | 16° |
| 2026-05-04 10:34 | 13.52490 | 100.71751 | 2541 ft | 230 kts | 16° |
| 2026-05-04 10:34 | 13.54045 | 100.72157 | 2254 ft | 228 kts | 16° |
| 2026-05-04 10:34 | 13.55541 | 100.72547 | 1977 ft | 214 kts | 16° |
| 2026-05-04 10:34 | 13.56979 | 100.72921 | 1711 ft | 203 kts | 17° |
| 2026-05-04 10:35 | 13.58331 | 100.73275 | 1461 ft | 192 kts | 17° |
| 2026-05-04 10:35 | 13.59598 | 100.73605 | 1223 ft | 181 kts | 17° |
| 2026-05-04 10:35 | 13.60796 | 100.73918 | 999 ft | 169 kts | 17° |
| 2026-05-04 10:35 | 13.61890 | 100.74203 | 792 ft | 159 kts | 17° |
| 2026-05-04 10:36 | 13.62963 | 100.74487 | 575 ft | 157 kts | 17° |
| 2026-05-04 10:36 | 13.64011 | 100.74761 | 348 ft | 152 kts | 16° |
| 2026-05-04 10:36 | 13.65061 | 100.75022 | 174 ft | 154 kts | 16° |
| 2026-05-04 10:36 | 13.66098 | 100.75294 | 23 ft | 146 kts | 15° |
| 2026-05-04 10:37 | 13.66961 | 100.75520 | 15 ft | 106 kts | 15° |
| 2026-05-04 10:37 | 13.67532 | 100.75672 | 15 ft | 61 kts | 14° |
| 2026-05-04 10:37 | 13.67835 | 100.75751 | 14 ft | 32 kts | 14° |
| 2026-05-04 10:37 | 13.68039 | 100.75724 | 14 ft | 28 kts | 338° |
| 2026-05-04 10:39 | 13.68494 | 100.75523 | 14 ft | 11 kts | 284° |
| 2026-05-04 10:39 | 13.68514 | 100.75442 | 14 ft | 11 kts | 284° |
| 2026-05-04 10:39 | 13.68536 | 100.75355 | 14 ft | 14 kts | 284° |
| 2026-05-04 10:40 | 13.68562 | 100.75249 | 14 ft | 16 kts | 284° |
| 2026-05-04 10:40 | 13.68592 | 100.75126 | 14 ft | 18 kts | 284° |
| 2026-05-04 10:40 | 13.68626 | 100.74990 | 14 ft | 20 kts | 284° |
| 2026-05-04 10:40 | 13.68664 | 100.74843 | 14 ft | 22 kts | 284° |
| 2026-05-04 10:41 | 13.68702 | 100.74682 | 14 ft | 23 kts | 284° |
| 2026-05-04 10:41 | 13.68743 | 100.74518 | 14 ft | 22 kts | 284° |
| 2026-05-04 10:41 | 13.68784 | 100.74414 | 14 ft | 11 kts | 330° |
| 2026-05-04 10:41 | 13.68862 | 100.74416 | 14 ft | 10 kts | 14° |
| 2026-05-04 10:42 | 13.68936 | 100.74435 | 14 ft | 11 kts | 14° |
| 2026-05-04 10:42 | 13.69001 | 100.74453 | 14 ft | 6 kts | 31° |
| 2026-05-04 10:42 | 13.69004 | 100.74493 | 14 ft | 5 kts | 101° |
| 2026-05-04 10:42 | 13.68996 | 100.74528 | 14 ft | 3 kts | 104° |
| 2026-05-04 10:43 | 13.68994 | 100.74537 | 14 ft | 0 kts | 104° |